Tiempo atmosférico en la estación meteorológica de Bujaraloz, Zaragoza (357 m.)



Fecha
DESCASC
Temp. máxima en grados centígrados (hora)
DESCASC
Temp. mínima en grados centígrados (hora)
DESCASC
Temp. media en grados centígrados
DESCASC
Racha de viento máxima en m/sg (hora)
DESCASC
Velocidad máxima media en intervalos de 10 minutos(hora)
DESCASC
Precipitaciones diarias en mm
DESCASC
Precipitaciones de 00:00 a 06:00 en mm
DESCASC
Precipitaciones de 06:00 a 12:00 en mm
DESCASC
Precipitaciones de 12:00 a 18:00 en mm
DESCASC
Precipitaciones de 18:00 a 24:00 en mm
DESCASC
23-05-2018 27.1 (16:50) 13.4 (06:30) 20.3 10.56 (20:10) 5.83 (20:10) 0 0 0 0 0
22-05-2018 27 (18:10) 11.5 (07:30) 19.3 7.78 (15:10) 4.17 (05:20) 0 0 0 0 0
21-05-2018 25.7 (17:40) 13.3 (06:30) 19.5 13.06 (19:10) 8.61 (19:10) 2.2 0 0 0 2.2
20-05-2018 23.6 (16:00) 12.3 (00:00) 18 14.17 (16:30) 8.89 (16:30) 0 0 0 0 0
19-05-2018 27.6 (17:50) 12.9 (07:00) 20.3 10.56 (18:30) 6.94 (19:10) 7 0 0 0 7
18-05-2018 25.3 (17:00) 13.6 (00:00) 19.4 7.78 (14:00) 5.83 (00:20) 4.4 0 0 0 4.4
17-05-2018 27.2 (17:10) 10.6 (00:00) 18.9 10 (22:10) 5.83 (22:10) 0 0 0 0 0
16-05-2018 26.9 (18:30) 7.6 (00:00) 17.2 10.83 (00:40) 7.5 (00:40) 0 0 0 0 0
15-05-2018 23.4 (17:40) 7.2 (00:00) 15.3 13.61 (21:00) 8.89 (20:10) 0 0 0 0 0
14-05-2018 18.6 (17:30) 6.4 (00:00) 12.5 16.94 (12:50) 12.22 (13:00) 0 0 0 0 0
13-05-2018 17.9 (15:50) 5.2 (00:00) 11.5 18.33 (11:00) 13.06 (10:40) 0 0 0 0 0
12-05-2018 25.6 (16:00) 10.1 (00:00) 17.9 14.17 (20:40) 8.89 (20:40) 0 0 0 0 0
11-05-2018 26.8 (18:20) 6.8 (06:40) 16.8 6.94 (18:20) 4.44 (00:40) 0 0 0 0 0
10-05-2018 23.6 (16:30) 10.8 (00:00) 17.2 13.89 (08:50) 9.17 (08:50) 0 0 0 0 0
09-05-2018 25.3 (18:10) 10.5 (00:00) 17.9 11.67 (10:20) 7.5 (00:20) 0 0 0 0 0
08-05-2018 26.1 (16:30) 14.1 (00:00) 20.1 12.78 (19:40) 8.33 (22:40) 0 0 0 0 0
07-05-2018 25.6 (16:40) 14.8 (00:00) 20.2 9.17 (18:10) 4.72 (18:10) 2.8 0 0 0 2.8
06-05-2018 26 (16:30) 10.6 (07:20) 18.3 7.22 (09:20) 5 (09:30) 0 0 0 0 0
05-05-2018 23 (17:00) 6.7 (00:00) 14.8 11.94 (00:20) 8.33 (00:20) 0 0 0 0 0
04-05-2018 22.5 (16:20) 6.6 (00:00) 14.5 14.72 (16:40) 9.72 (19:40) 0 0 0 0 0
03-05-2018 19.1 (15:40) 9.5 (00:00) 14.3 18.61 (09:00) 12.78 (09:00) 0 0 0 0 0
02-05-2018 20.3 (18:10) 2.9 (00:00) 11.6 15.28 (21:00) 11.11 (21:00) 0 0 0 0 0
01-05-2018 17.9 (16:40) 3.1 (06:40) 10.5 14.17 (16:10) 8.33 (19:00) 0 0 0 0 0
30-04-2018 17.4 (18:30) 5.7 (00:00) 11.5 10.83 (23:10) 6.67 (23:00) 0 0 0 0 0
29-04-2018 16.2 (15:20) 9.5 (00:00) 12.9 13.89 (17:40) 9.17 (16:40) 8 7 0.6 0.4 0
28-04-2018 22.6 (16:10) 8.3 (00:00) 15.5 13.06 (16:40) 9.17 (16:40) 0 0 0 0 0

Gráficas

Temp. máximas Temp. mínimas Temp. medias Precipitaciones Rachas de viento máximas Velocidades máximas media en intervalos de 10 minutos

Datos horarios

Fecha y hora oficial Temperatura (ºC) Velocidad del viento (km/h) Dirección del viento Racha (km/h) Dirección de racha Precipitación (mm) Presión (hPa) Tendencia (hPa) Humedad (%)
2018-05-27 23:00:00 20.2 10 Sudeste 20 Sudeste 0 970 1.2 72
2018-05-27 22:00:00 21.3 2 Este 8 Sudeste 0 969.2 0.1 65
2018-05-27 21:00:00 22.4 3 Sur 16 Sudeste 0 969 0.1 62
2018-05-27 20:00:00 23.4 10 Sudeste 19 Sur 0 968.8 0.3 58
2018-05-27 19:00:00 24.3 14 Sur 26 Sur 0 969.1 -0.1 54
2018-05-27 18:00:00 25.2 4 Norte 12 Nordeste 0 968.9 -1.1 52
2018-05-27 17:00:00 25.3 6 Norte 26 Este 0 968.5 -2.1 50
2018-05-27 16:00:00 25 15 Este 28 Este 0 969.2 -2 52
2018-05-27 15:00:00 24.8 14 Este 23 Este 0 970 -1.8 52
2018-05-27 14:00:00 23.8 7 Este 22 Este 0 970.6 -1.2 55
2018-05-27 13:00:00 21.9 7 Este 17 Sudeste 0 971.2 -0.8 61
2018-05-27 12:00:00 21 6 Sudeste 13 Sur 0 971.8 0.2 66
2018-05-27 11:00:00 19.5 4 Sur 10 Sur 0 971.8 0.7 74
2018-05-27 10:00:00 18.4 5 Oeste 12 Oeste 0 972 1.1 81
2018-05-27 09:00:00 17.3 5 Oeste 12 Oeste 0 971.6 0.8 86
2018-05-27 08:00:00 17.2 4 Oeste 10 Noroeste 0 971.1 0.3 86
2018-05-27 07:00:00 16.3 7 Noroeste 13 Noroeste 0 970.9 -0.1 90
2018-05-27 06:00:00 15.3 8 Noroeste 13 Noroeste 0 970.8 -0.6 91
2018-05-27 05:00:00 15.3 8 Noroeste 12 Nordeste 0 970.8 -1 90
2018-05-27 04:00:00 16.4 5 Norte 12 Norte 0 971 -1 88
2018-05-27 03:00:00 16.4 7 Nordeste 19 Nordeste 0 971.4 -0.6 89
2018-05-27 02:00:00 16.3 7 Norte 16 Norte 0 971.8 0.2 88
2018-05-27 01:00:00 16.5 8 Norte 17 Nordeste 0 972 1.3 87
2018-05-27 00:00:00 16.6 10 Nordeste 20 Sudeste 0 972 1.4 86
2018-05-26 23:00:00 17 12 Este 19 Este 0 971.6 1.3 85
2018-05-26 22:00:00 17.8 14 Este 23 Este 0 970.7 1.2 81
2018-05-26 21:00:00 19.2 17 Este 30 Este 0 970.6 0.2 75
2018-05-26 20:00:00 20.8 24 Este 37 Este 0 970.3 0.1 67
2018-05-26 19:00:00 22 32 Este 44 Este 0 969.5 -1 62
2018-05-26 18:00:00 22 29 Este 50 Este 0 970.4 -0.3 62
2018-05-26 17:00:00 23.7 27 Este 40 Este 0 970.2 -0.8 56
2018-05-26 16:00:00 24 27 Este 44 Este 0 970.5 -0.6 56
2018-05-26 15:00:00 24.4 30 Este 46 Este 0 970.7 -0.5 53
2018-05-26 14:00:00 24.4 30 Este 44 Nordeste 0 971 -0.3 54
2018-05-26 13:00:00 24 24 Este 40 Este 0 971.1 -0.5 55
2018-05-26 12:00:00 21.8 24 Este 42 Este 0 971.2 -0.6 68
2018-05-26 11:00:00 20.7 27 Este 37 Este 0 971.3 -0.2 73
2018-05-26 10:00:00 19.4 17 Este 23 Nordeste 0 971.6 0.7 79
2018-05-26 09:00:00 17.3 15 Nordeste 25 Nordeste 0 971.8 1.3 86
2018-05-26 08:00:00 16.1 15 Este 23 Este 0 971.5 1 89
2018-05-26 07:00:00 15.5 14 Nordeste 21 Este 0 970.9 0.2 90
2018-05-26 06:00:00 15.5 7 Nordeste 16 Nordeste 0 970.5 -0.6 86
2018-05-26 05:00:00 16 10 Nordeste 21 Nordeste 0 970.5 -0.7 85
2018-05-26 04:00:00 16.2 12 Nordeste 19 Nordeste 0 970.7 -0.9 89
2018-05-26 03:00:00 16.2 7 Nordeste 17 Nordeste 0 971.1 0.2 87
2018-05-26 02:00:00 16.8 13 Este 21 Nordeste 0 971.2 0.6 85
2018-05-26 01:00:00 17.4 14 Este 28 Este 0 971.6 1.5 82
2018-05-26 00:00:00 17.3 22 Este 41 Este 0 970.9 1.6 81
2018-05-25 23:00:00 17.1 19 Este 30 Este 0 970.6 1.2 79
2018-05-25 22:00:00 18.1 16 Este 42 Sudeste 0 970.1 0.8 72
2018-05-25 21:00:00 20.3 24 Sudeste 45 Este 0 969.3 -0.1 61
2018-05-25 20:00:00 22 28 Este 50 Este 0 969.4 0.2 55
2018-05-25 19:00:00 23.8 28 Este 44 Este 0 969.3 0 50
2018-05-25 18:00:00 25.6 24 Sudeste 48 Este 0 969.4 -0.1 45
2018-05-25 17:00:00 26.3 32 Este 52 Este 0 969.2 -1 38
2018-05-25 16:00:00 26.8 32 Este 48 Este 0 969.3 -1.5 34
2018-05-25 15:00:00 27 27 Este 48 Este 0 969.5 -2.1 34
2018-05-25 14:00:00 24.6 24 Este 37 Nordeste 0 970.2 -1.8 44
2018-05-25 13:00:00 23.1 25 Nordeste 41 Nordeste 0 970.8 -1.9 49
2018-05-25 12:00:00 21.3 23 Este 37 Nordeste 0 971.6 -0.9 58
2018-05-25 11:00:00 19.3 14 Nordeste 30 Este 0 972 -1.4 71
2018-05-25 10:00:00 16.4 8 Norte 28 Noroeste 0.2 972.7 0.2 84
2018-05-25 09:00:00 15.9 14 Noroeste 27 Noroeste 0 972.5 0.2 82
2018-05-25 08:00:00 14.7 6 Noroeste 23 Oeste 0.6 973.4 0.6 86
2018-05-25 07:00:00 15 10 Norte 21 Sudoeste 0 972.5 -1.4 83
2018-05-25 06:00:00 15.6 10 Sur 48 Nordeste 1 972.3 -0.7 70
2018-05-25 05:00:00 15.1 17 Nordeste 24 Nordeste 0 972.8 -0.2 81
2018-05-25 04:00:00 15.7 7 Sudeste 13 Nordeste 0 973.9 0.8 71
2018-05-25 03:00:00 15.3 5 Norte 15 Nordeste 0 973 0 70
2018-05-25 02:00:00 16.3 8 Nordeste 22 Nordeste 0 973 0 64
2018-05-25 01:00:00 17.3 12 Nordeste 24 Nordeste 0 973.1 0.7 58
2018-05-25 00:00:00 18.2 12 Este 18 Nordeste 0 973 1.2 60
2018-05-24 23:00:00 19.4 13 Este 19 Este 0 973 1.5 57
2018-05-24 22:00:00 20.3 13 Este 29 Este 0 972.4 1.2 49
2018-05-24 21:00:00 21.9 23 Este 44 Este 0 971.8 0.6 40
2018-05-24 20:00:00 24.1 26 Este 42 Este 0 971.5 -0.1 39
2018-05-24 19:00:00 26.8 28 Este 43 Sudeste 0 971.2 -0.8 35
2018-05-24 18:00:00 28.7 23 Este 35 Este 0 971.2 -1.8 34
2018-05-24 17:00:00 28.3 16 Nordeste 30 Nordeste 0 971.6 -1.8 35
2018-05-24 16:00:00 28.1 12 Nordeste 25 Este 0 972 -2.1 37
2018-05-24 15:00:00 27.5 13 Este 24 Este 0 973 -1.4 37
2018-05-24 14:00:00 26.1 13 Este 26 Este 0 973.4 -1.3 43
2018-05-24 13:00:00 24.4 8 Este 22 Nordeste 0 974.1 -0.9 50
2018-05-24 12:00:00 22.1 13 Este 20 Este 0 974.4 -0.4 60
2018-05-24 11:00:00 20.5 13 Este 21 Este 0 974.7 -0.1 66
2018-05-24 10:00:00 19.2 12 Este 19 Nordeste 0 975 0.1 73
2018-05-24 09:00:00 17.4 12 Nordeste 20 Nordeste 0 974.8 0 83
2018-05-24 08:00:00 16.1 9 Norte 19 Norte 0 974.8 0.1 90
2018-05-24 07:00:00 14.9 9 Noroeste 20 Noroeste 0 974.9 0.3 95
2018-05-24 06:00:00 15.2 13 Noroeste 23 Norte 0 974.8 -0.2 94
2018-05-24 05:00:00 15.7 8 Norte 18 Norte 0 974.7 -0.2 91
2018-05-24 04:00:00 16.2 6 Norte 13 Nordeste 0 974.6 -0.9 89
2018-05-24 03:00:00 16.9 6 Nordeste 15 Noroeste 0 975 -0.9 86
2018-05-24 02:00:00 17.4 4 Norte 10 Norte 0 974.9 -0.9 82
2018-05-24 01:00:00 17.7 3 Norte 10 Nordeste 0 975.5 0.5 79
2018-05-24 00:00:00 18.1 7 Nordeste 12 Nordeste 0 975.9 0.6 75
2018-05-23 23:00:00 18.2 3 Norte 15 Nordeste 0 975.8 1.9 74
2018-05-23 22:00:00 18.4 6 Norte 27 Noroeste 0 975 2.2 76
2018-05-23 21:00:00 19.7 13 Noroeste 38 Oeste 0 975.3 2.8 71
2018-05-23 20:00:00 21.4 10 Sudoeste 28 Sudeste 0 973.9 1.3 69
2018-05-23 19:00:00 23.7 14 Sudeste 30 Este 0 972.8 -0.4 53
2018-05-23 18:00:00 26.2 14 Este 23 Este 0 972.5 -1.4 42
2018-05-23 17:00:00 26.8 12 Nordeste 24 Este 0 972.6 -2.3 38
2018-05-23 16:00:00 26.4 13 Este 23 Este 0 973.2 -2.1 40
2018-05-23 15:00:00 25 8 Este 21 Sudeste 0 973.9 -1.5 44
2018-05-23 14:00:00 23.5 8 Este 19 Sudeste 0 974.9 -0.6 54
2018-05-23 13:00:00 22.8 9 Este 24 Sudeste 0 975.3 -0.2 60
2018-05-23 12:00:00 21.1 9 Nordeste 19 Nordeste 0 975.4 0.1 64
2018-05-23 11:00:00 19.1 5 Norte 15 Nordeste 0 975.5 0.5 72
2018-05-23 10:00:00 17.1 3 Sudoeste 9 Este 0 975.5 0.8 80
2018-05-23 09:00:00 16.3 5 Este 14 Nordeste 0 975.3 1.2 82
2018-05-23 08:00:00 14.7 5 Norte 10 Norte 0 975 0.8 87
2018-05-23 07:00:00 13.6 6 Noroeste 15 Norte 0 974.7 0.6 90
2018-05-23 06:00:00 13.7 9 Norte 17 Norte 0 974.1 0.1 90
2018-05-23 05:00:00 13.6 9 Noroeste 19 Norte 0 974.2 0.2 91
2018-05-23 04:00:00 14.2 10 Norte 18 Noroeste 0 974.1 0.3 87
2018-05-23 03:00:00 14.6 11 Norte 18 Norte 0 974 0.5 85
2018-05-23 02:00:00 15 8 Norte 15 Norte 0 974 0.7 82
2018-05-23 01:00:00 16.1 6 Norte 12 Nordeste 0 973.8 1.5 80
2018-05-23 00:00:00 16.8 5 Nordeste 14 Nordeste 0 973.5 2 75
2018-05-22 23:00:00 18.3 7 Nordeste 15 Nordeste 0 973.3 2.3 68
2018-05-22 22:00:00 19.5 7 Nordeste 16 Este 0 972.3 1.5 64
2018-05-22 21:00:00 22.3 14 Este 23 Nordeste 0 971.5 0.9 53
2018-05-22 20:00:00 25.6 7 Norte 17 Este 0 971 0.4 37
2018-05-22 19:00:00 26.4 9 Oeste 23 Oeste 0 970.8 -0.1 29
2018-05-22 18:00:00 26.8 6 Noroeste 19 Sur 0 970.6 -0.8 36
2018-05-22 17:00:00 25 6 Norte 24 Nordeste 0 970.6 -1.2 43
2018-05-22 16:00:00 25.5 10 Norte 28 Oeste 0 970.9 -1.2 44
2018-05-22 15:00:00 25.2 12 Sudoeste 23 Oeste 0 971.4 -0.9 40
2018-05-22 14:00:00 23 9 Oeste 23 Oeste 0 971.8 -0.4 50
2018-05-22 13:00:00 21.5 8 Sudoeste 20 Oeste 0 972.1 0 58
2018-05-22 12:00:00 19.3 10 Oeste 23 Oeste 0 972.3 0.5 68
2018-05-22 11:00:00 18 11 Sudoeste 19 Oeste 0 972.2 0.8 74
2018-05-22 10:00:00 16 8 Sudoeste 18 Oeste 0 972.1 1.3 84
2018-05-22 09:00:00 14.3 9 Sudoeste 18 Oeste 0 971.8 1.7 89
2018-05-22 08:00:00 11.9 0 Calma 10 Sur 0 971.4 1.4 93
2018-05-22 07:00:00 12.3 6 Sur 20 Noroeste 0 970.8 0.6 88
2018-05-22 06:00:00 13 12 Noroeste 22 Noroeste 0 970.1 -0.2 89
2018-05-22 05:00:00 13.2 13 Noroeste 18 Noroeste 0 970 -0.5 89
2018-05-22 04:00:00 12.9 8 Noroeste 11 Noroeste 0 970.2 -0.5 90
2018-05-22 03:00:00 12.8 6 Noroeste 11 Oeste 0 970.3 -0.7 93
2018-05-22 02:00:00 13.4 5 Noroeste 6 Oeste 0 970.5 -0.5 91
2018-05-22 01:00:00 14.8 4 Sudeste 9 Sudeste 0 970.7 0.2 89
2018-05-22 00:00:00 15.7 3 Nordeste 8 Nordeste 0 971 1.7 85
2018-05-21 23:00:00 15.8 4 Nordeste 23 Nordeste 0 971 2.2 87
2018-05-21 22:00:00 16.2 10 Norte 24 Norte 0 970.5 1.9 83
2018-05-21 21:00:00 16.8 9 Oeste 28 Oeste 0.2 969.3 2 78
2018-05-21 20:00:00 16 21 Oeste 47 Oeste 2 968.8 1.6 83
2018-05-21 19:00:00 20.6 27 Sudoeste 43 Sudoeste 0 968.6 1 51
2018-05-21 18:00:00 24.7 9 Sudeste 26 Este 0 967.3 -1 37
2018-05-21 17:00:00 24.8 8 Este 24 Este 0 967.2 -1.7 39
2018-05-21 16:00:00 24.7 13 Este 26 Este 0 967.6 -2.1 40
2018-05-21 15:00:00 23.8 12 Este 23 Este 0 968.3 -1.9 43
2018-05-21 14:00:00 23.5 10 Este 24 Este 0 968.9 -1.3 44
2018-05-21 13:00:00 22.1 10 Este 21 Este 0 969.7 -0.6 55
2018-05-21 12:00:00 20.6 7 Este 23 Nordeste 0 970.2 -0.2 62
2018-05-21 11:00:00 20.1 9 Este 17 Este 0 970.2 0 64
2018-05-21 10:00:00 17.9 8 Este 13 Este 0 970.3 0.3 73
2018-05-21 09:00:00 16.6 6 Este 11 Este 0 970.4 0.5 75
2018-05-21 08:00:00 14.3 5 Norte 13 Noroeste 0 970.2 0.4 84
2018-05-21 07:00:00 13.7 8 Noroeste 17 Noroeste 0 970 -0.3 85
2018-05-21 06:00:00 14.1 9 Norte 15 Noroeste 0 969.9 -0.7 83
2018-05-21 05:00:00 14.5 6 Norte 13 Noroeste 0 969.8 -1.3 83
2018-05-21 04:00:00 14.4 6 Norte 12 Norte 0 970.3 -1.3 84
2018-05-21 03:00:00 14.4 6 Norte 12 Norte 0 970.6 -1.2 83
2018-05-21 02:00:00 14.8 4 Nordeste 10 Nordeste 0 971.1 -0.5 82
2018-05-21 01:00:00 15.2 6 Norte 11 Norte 0 971.6 0.3 80
2018-05-21 00:00:00 15.5 4 Norte 9 Nordeste 0 971.8 0.8 79
2018-05-20 23:00:00 16.2 5 Nordeste 9 Nordeste 0 971.6 0.9 74
2018-05-20 22:00:00 16.8 8 Nordeste 12 Este 0 971.3 0.6 74
2018-05-20 21:00:00 18.4 8 Este 14 Este 0 971 0.4 70
2018-05-20 20:00:00 19.1 13 Este 19 Sudeste 0 970.7 -0.3 65
2018-05-20 19:00:00 21.2 12 Sudeste 37 Sudeste 0 970.7 -0.6 55
2018-05-20 18:00:00 20.5 21 Sudeste 39 Sudeste 0 970.6 -1.4 55
2018-05-20 17:00:00 22.2 23 Sudeste 51 Sudeste 0 971 -1.5 55
2018-05-20 16:00:00 23.5 10 Sudeste 19 Sudeste 0 971.3 -2.1 44
2018-05-20 15:00:00 21.7 5 Nordeste 15 Este 0 972 -1.8 55
2018-05-20 14:00:00 21.8 4 Sudeste 13 Sudeste 0 972.5 -1.5 52
2018-05-20 13:00:00 20.3 4 Este 12 Sur 0 973.4 -0.6 60
2018-05-20 12:00:00 18.2 6 Sudoeste 12 Sur 0 973.8 -0.2 69
2018-05-20 11:00:00 16.2 8 Oeste 21 Oeste 0 974 0.3 87
2018-05-20 10:00:00 14 16 Oeste 23 Oeste 0 974 0.5 96
2018-05-20 09:00:00 13 15 Oeste 22 Oeste 0 974 0.5 96
2018-05-20 08:00:00 13.2 12 Oeste 19 Oeste 0 973.7 -0.1 91
2018-05-20 07:00:00 12.6 3 Sudoeste 9 Sudoeste 0 973.5 -0.4 94
2018-05-20 06:00:00 12.8 2 Sudeste 4 Sur 0 973.5 -0.6 93
2018-05-20 05:00:00 13 2 Noroeste 5 Este 0 973.8 -0.8 92
2018-05-20 04:00:00 13.1 4 Oeste 8 Oeste 0 973.9 -0.9 92
2018-05-20 03:00:00 13.6 4 Noroeste 9 Oeste 0 974.1 -0.9 92
2018-05-20 02:00:00 14.7 3 Norte 7 Oeste 0 974.6 -0.1 90
2018-05-20 01:00:00 14.8 4 Sudoeste 14 Sur 0 974.8 1.2 90
2018-05-20 00:00:00 15.1 8 Sur 15 Sur 0 975 1.4 89
2018-05-19 23:00:00 15.2 12 Sudeste 21 Este 0 974.7 1.9 91
2018-05-19 22:00:00 15.4 18 Este 26 Este 0 973.6 1.2 91
2018-05-19 21:00:00 15.7 9 Este 19 Sudeste 0.6 973.6 1.9 88
2018-05-19 20:00:00 16 7 Sur 36 Este 6 972.8 0.5 89
2018-05-19 19:00:00 18.4 21 Este 38 Nordeste 0.4 972.4 -0.4 79
2018-05-19 18:00:00 26.3 4 Oeste 17 Oeste 0 971.7 -1.9 36
2018-05-19 17:00:00 25.6 4 Nordeste 17 Sudoeste 0 972.3 -2.1 38
2018-05-19 16:00:00 25.3 8 Sudoeste 18 Sudeste 0 972.8 -2.2 40
2018-05-19 15:00:00 24 5 Sudeste 19 Sur 0 973.6 -1.8 42
2018-05-19 14:00:00 23.1 8 Sudeste 16 Sur 0 974.4 -1.1 46
2018-05-19 13:00:00 22.6 5 Sur 17 Sur 0 975 -0.5 54
2018-05-19 12:00:00 20.3 4 Sur 12 Sur 0 975.4 0.1 60
2018-05-19 11:00:00 18.9 6 Oeste 13 Oeste 0 975.5 0.6 67
2018-05-19 10:00:00 17.7 4 Sudeste 14 Noroeste 0 975.5 0.9 72
2018-05-19 09:00:00 15.3 12 Oeste 20 Oeste 0 975.3 0.9 86
2018-05-19 08:00:00 14 5 Sudoeste 12 Oeste 0 974.9 0.7 87
2018-05-19 07:00:00 12.9 8 Oeste 11 Oeste 0 974.6 0.3 90
2018-05-19 06:00:00 14.5 3 Sudoeste 10 Noroeste 0 974.4 -0.3 81
2018-05-19 05:00:00 14.8 6 Norte 14 Noroeste 0 974.2 -0.8 80
2018-05-19 04:00:00 15.2 6 Noroeste 10 Noroeste 0 974.3 -0.7 78
2018-05-19 03:00:00 15.3 5 Noroeste 10 Nordeste 0 974.7 -0.1 77
2018-05-19 02:00:00 15.4 4 Norte 17 Nordeste 0 975 0.2 76
2018-05-19 01:00:00 15.7 6 Nordeste 10 Nordeste 0 975 0.7 75
2018-05-19 00:00:00 16.1 5 Nordeste 8 Nordeste 0 974.8 1.1 79
2018-05-18 23:00:00 16.6 7 Este 15 Este 0 974.8 1.4 79
2018-05-18 22:00:00 17.3 4 Sur 12 Sur 0 974.3 1.5 79
2018-05-18 21:00:00 18.3 8 Noroeste 27 Noroeste 0.8 973.7 0.9 72
2018-05-18 20:00:00 18.5 10 Noroeste 27 Noroeste 3.6 973.4 0.5 78
2018-05-18 19:00:00 24 6 Este 17 Este 0 972.8 -0.5 37
2018-05-18 18:00:00 25.2 5 Este 18 Este 0 972.8 -1.1 35
2018-05-18 17:00:00 24.7 5 Sur 21 Sudeste 0 972.9 -1.7 37
2018-05-18 16:00:00 24.6 4 Sur 21 Sudeste 0 973.3 -1.9 39
2018-05-18 15:00:00 24.4 7 Sudeste 21 Sudeste 0 973.9 -1.4 42
2018-05-18 14:00:00 21.6 12 Este 28 Sudeste 0 974.6 -0.9 46
2018-05-18 13:00:00 21.2 11 Este 21 Este 0 975.2 -0.1 49
2018-05-18 12:00:00 19.6 8 Este 15 Este 0 975.3 0.2 54
2018-05-18 11:00:00 18.7 5 Este 12 Este 0 975.5 0.7 57
2018-05-18 10:00:00 17.3 5 Este 10 Nordeste 0 975.3 1.1 63
2018-05-18 09:00:00 15.7 2 Sudoeste 11 Sudoeste 0 975.1 1.1 73
2018-05-18 08:00:00 13.9 5 Noroeste 12 Norte 0 974.8 0.8 80
2018-05-18 07:00:00 14 4 Norte 10 Noroeste 0 974.2 0.2 78
2018-05-18 06:00:00 14.1 7 Noroeste 13 Noroeste 0 974 -0.2 78
2018-05-18 05:00:00 14.1 6 Norte 17 Noroeste 0 974 0 77
2018-05-18 04:00:00 14.2 10 Noroeste 19 Noroeste 0 974 0.1 77
2018-05-18 03:00:00 15.4 9 Nordeste 22 Noroeste 0 974.2 0 65
2018-05-18 02:00:00 14.8 14 Nordeste 19 Este 0 974 -0.1 65
2018-05-18 01:00:00 15.1 13 Este 28 Nordeste 0 973.9 0.8 63
2018-05-18 00:00:00 16.4 15 Nordeste 25 Nordeste 0 974.2 2.5 56
2018-05-17 23:00:00 17.5 13 Nordeste 36 Nordeste 0 974.1 3.1 53
2018-05-17 22:00:00 18.2 11 Nordeste 28 Norte 0 973.1 2.5 55
2018-05-17 21:00:00 20.6 14 Este 25 Este 0 971.7 0.9 52
2018-05-17 20:00:00 23.4 6 Sudeste 20 Sudeste 0 971 -0.1 41
2018-05-17 19:00:00 25 8 Sudeste 20 Sudeste 0 970.6 -1 36
2018-05-17 18:00:00 26.1 7 Sudeste 19 Sudeste 0 970.8 -1.7 31
2018-05-17 17:00:00 26.8 7 Sudoeste 18 Sudoeste 0 971.1 -2.2 31
2018-05-17 16:00:00 24.7 6 Este 19 Sudeste 0 971.6 -2.3 37
2018-05-17 15:00:00 23.5 5 Este 15 Sur 0 972.5 -1.8 41
2018-05-17 14:00:00 22.7 5 Oeste 17 Sudoeste 0 973.3 -1.1 44
2018-05-17 13:00:00 21 6 Sudoeste 17 Sudoeste 0 973.9 -0.7 48
2018-05-17 12:00:00 17.8 7 Sudoeste 20 Oeste 0 974.3 0.2 59
2018-05-17 11:00:00 15.6 11 Oeste 18 Oeste 0 974.4 0.4 67
2018-05-17 10:00:00 13.8 12 Oeste 19 Sudoeste 0 974.6 0.7 74
2018-05-17 09:00:00 12 12 Oeste 21 Oeste 0 974.1 0.4 82
2018-05-17 08:00:00 11 13 Oeste 23 Oeste 0 974 0.4 84
2018-05-17 07:00:00 10.6 13 Oeste 24 Oeste 0 973.9 0.3 85
2018-05-17 06:00:00 10.9 14 Oeste 23 Oeste 0 973.7 0.1 85
2018-05-17 05:00:00 10.7 13 Oeste 20 Oeste 0 973.6 0.1 86
2018-05-17 04:00:00 10.9 13 Oeste 21 Oeste 0 973.6 0.1 84
2018-05-17 03:00:00 11.5 13 Oeste 20 Oeste 0 973.6 0.4 82
2018-05-17 02:00:00 12.5 14 Oeste 23 Oeste 0 973.5 0.6 78
2018-05-17 01:00:00 14.1 15 Oeste 28 Sudoeste 0 973.5 1.1 71
2018-05-17 00:00:00 15.4 13 Sudoeste 23 Oeste 0 973.2 1.1 68
2018-05-16 23:00:00 16.9 16 Oeste 24 Oeste 0 972.9 1.2 63
2018-05-16 22:00:00 19.6 18 Oeste 25 Oeste 0 972.4 0.6 52
2018-05-16 21:00:00 23 8 Sudoeste 21 Sudoeste 0 972.1 0 40
2018-05-16 20:00:00 24.4 8 Sudoeste 18 Oeste 0 971.7 -0.8 35
2018-05-16 19:00:00 26.2 6 Sudoeste 18 Sudoeste 0 971.8 -1.6 30
2018-05-16 18:00:00 26.1 6 Sudoeste 20 Sudoeste 0 972.1 -2.2 30
2018-05-16 17:00:00 25.1 7 Oeste 21 Oeste 0 972.5 -2.5 32
2018-05-16 16:00:00 25 7 Sudoeste 23 Oeste 0 973.4 -2.1 33
2018-05-16 15:00:00 23 9 Sudoeste 27 Sudoeste 0 974.3 -1.5 38
2018-05-16 14:00:00 21.1 12 Sudoeste 28 Oeste 0 975 -0.8 43
2018-05-16 13:00:00 19.7 13 Oeste 26 Sudoeste 0 975.5 -0.3 45
2018-05-16 12:00:00 17.8 12 Sudoeste 27 Sudoeste 0 975.8 0.2 50
2018-05-16 11:00:00 15.3 15 Oeste 24 Oeste 0 975.8 0.2 57
2018-05-16 10:00:00 12.1 12 Oeste 21 Oeste 0 975.8 0.5 66
2018-05-16 09:00:00 9.8 12 Oeste 20 Oeste 0 975.6 0.8 76
2018-05-16 08:00:00 8 9 Oeste 18 Oeste 0 975.6 0.5 80
2018-05-16 07:00:00 7.7 16 Oeste 30 Oeste 0 975.3 0.5 81
2018-05-16 06:00:00 8.2 18 Oeste 26 Oeste 0 974.8 -0.2 77
2018-05-16 05:00:00 9 17 Oeste 33 Oeste 0 975.1 -0.1 74
2018-05-16 04:00:00 10 23 Oeste 38 Oeste 0 974.8 -0.3 71
2018-05-16 03:00:00 10.8 22 Oeste 33 Oeste 0 975 0.2 73
2018-05-16 02:00:00 11.3 21 Oeste 36 Oeste 0 975.2 0.8 71
2018-05-16 01:00:00 12.2 26 Oeste 39 Oeste 0 975.1 1.3 68
2018-05-16 00:00:00 12.5 23 Oeste 36 Oeste 0 974.8 1.2 68
2018-05-15 23:00:00 13.5 25 Oeste 42 Oeste 0 974.4 1.4 64
2018-05-15 22:00:00 14.6 28 Oeste 42 Sudoeste 0 973.8 1 59
2018-05-15 21:00:00 16.4 31 Oeste 49 Oeste 0 973.6 0.6 55
2018-05-15 20:00:00 19 28 Oeste 47 Oeste 0 973 -0.3 48
2018-05-15 19:00:00 21 27 Oeste 42 Oeste 0 972.8 -1 42
2018-05-15 18:00:00 21.1 23 Oeste 41 Oeste 0 973 -1.3 42
2018-05-15 17:00:00 22.8 21 Oeste 40 Oeste 0 973.3 -1.5 38
2018-05-15 16:00:00 21.7 21 Sudoeste 40 Oeste 0 973.8 -1.6 40
2018-05-15 15:00:00 21 21 Sudoeste 44 Oeste 0 974.3 -1.5 40
2018-05-15 14:00:00 20.1 24 Oeste 41 Oeste 0 974.8 -1.1 43
2018-05-15 13:00:00 19 21 Oeste 43 Oeste 0 975.4 -0.8 43
2018-05-15 12:00:00 17.1 22 Oeste 39 Oeste 0 975.8 -0.3 48
2018-05-15 11:00:00 15 28 Oeste 42 Oeste 0 975.9 0 54
2018-05-15 10:00:00 13.3 25 Oeste 41 Sudoeste 0 976.2 0.7 60
2018-05-15 09:00:00 11 27 Oeste 41 Oeste 0 976.1 0.8 67
2018-05-15 08:00:00 8.4 16 Sudoeste 30 Oeste 0 975.9 0.5 77
2018-05-15 07:00:00 7.3 21 Oeste 35 Oeste 0 975.5 0 80
2018-05-15 06:00:00 7.5 21 Oeste 33 Sudoeste 0 975.3 -0.3 78
2018-05-15 05:00:00 7.7 21 Oeste 31 Sudoeste 0 975.4 -0.5 76
2018-05-15 04:00:00 7.9 18 Oeste 31 Oeste 0 975.5 -0.2 73
2018-05-15 03:00:00 8 23 Oeste 33 Oeste 0 975.6 0 69
2018-05-15 02:00:00 8.5 24 Oeste 35 Oeste 0 975.9 0.5 66
2018-05-15 01:00:00 9 21 Oeste 33 Oeste 0 975.7 1 62
2018-05-15 00:00:00 9.7 23 Oeste 35 Oeste 0 975.6 1.7 59
2018-05-14 23:00:00 10.6 24 Oeste 35 Oeste 0 975.4 1.9 59
2018-05-14 22:00:00 11.8 19 Oeste 44 Oeste 0 974.7 1.6 57
2018-05-14 21:00:00 14.2 30 Oeste 48 Oeste 0 973.9 1 49
2018-05-14 20:00:00 16.7 28 Oeste 51 Oeste 0 973.5 0.6 41
2018-05-14 19:00:00 16.1 34 Oeste 60 Oeste 0 973.1 -0.4 43
2018-05-14 18:00:00 17.3 41 Oeste 58 Oeste 0 972.9 -1.1 39
2018-05-14 17:00:00 17.7 35 Oeste 55 Oeste 0 972.9 -1.3 36
2018-05-14 16:00:00 17.9 32 Oeste 51 Oeste 0 973.5 -0.8 34
2018-05-14 15:00:00 16.4 32 Oeste 52 Oeste 0 974 -0.3 37
2018-05-14 14:00:00 16.3 35 Oeste 60 Oeste 0 974.2 -0.4 38
2018-05-14 13:00:00 15.5 44 Oeste 61 Oeste 0 974.3 -0.5 43
2018-05-14 12:00:00 13.8 39 Oeste 59 Oeste 0 974.3 -0.4 49
2018-05-14 11:00:00 14.1 38 Oeste 58 Oeste 0 974.6 -0.4 49
2018-05-14 10:00:00 12.2 38 Oeste 53 Oeste 0 974.8 -0.2 58
2018-05-14 09:00:00 9.1 34 Oeste 51 Oeste 0 974.7 -0.2 74
2018-05-14 08:00:00 6.6 18 Sudoeste 37 Oeste 0 975 -0.1 83
2018-05-14 07:00:00 6.8 28 Oeste 41 Oeste 0 975 -0.3 81
2018-05-14 06:00:00 7.3 26 Oeste 49 Oeste 0 974.9 -0.6 78
2018-05-14 05:00:00 7.7 27 Oeste 40 Oeste 0 975.1 -0.7 74
2018-05-14 04:00:00 8.2 27 Oeste 44 Oeste 0 975.3 -0.8 73
2018-05-14 03:00:00 8.9 27 Oeste 42 Oeste 0 975.5 -1 66
2018-05-14 02:00:00 9.6 28 Oeste 41 Oeste 0 975.8 -0.9 62
2018-05-14 01:00:00 9.8 14 Sudoeste 34 Sudoeste 0 976.1 -0.1 60
2018-05-11 20:00:00 24.4 10 Nordeste 22 Este 0 971.5 -0.8 42
2018-05-11 19:00:00 25.7 14 Este 25 Nordeste 0 971.5 -1.4 37
2018-05-11 18:00:00 26 6 Sudeste 18 Sudeste 0 971.8 -1.8 36
2018-05-11 17:00:00 25.4 4 Nordeste 18 Nordeste 0 972.3 -2.2 36
2018-05-11 16:00:00 25.1 7 Norte 15 Nordeste 0 972.9 -2.3 40
2018-05-11 15:00:00 23.7 4 Nordeste 17 Este 0 973.6 -2.1 44
2018-05-11 14:00:00 21.9 6 Nordeste 15 Nordeste 0 974.5 -1.1 47
2018-05-11 13:00:00 20.2 6 Nordeste 13 Este 0 975.2 -0.6 51
2018-05-11 12:00:00 17.7 5 Este 17 Este 0 975.7 0 56
2018-05-11 11:00:00 15.9 8 Este 15 Nordeste 0 975.6 0 60
2018-05-11 10:00:00 13.6 4 Este 10 Este 0 975.8 0.3 67
2018-05-11 09:00:00 11.7 4 Sudeste 7 Sudeste 0 975.7 0.3 75
2018-05-11 08:00:00 8.2 4 Oeste 6 Oeste 0 975.6 0.2 88
2018-05-11 07:00:00 7 3 Oeste 8 Oeste 0 975.5 0 86
2018-05-11 06:00:00 7.1 4 Oeste 6 Oeste 0 975.4 -0.2 85
2018-05-11 05:00:00 7.5 5 Oeste 6 Sudoeste 0 975.4 -0.5 86
2018-05-11 04:00:00 8.6 4 Nordeste 13 Oeste 0 975.5 -0.4 83
2018-05-11 03:00:00 8.6 9 Oeste 20 Sudoeste 0 975.6 -0.3 83
2018-05-11 02:00:00 10.2 6 Oeste 18 Oeste 0 975.9 0.5 76
2018-05-11 01:00:00 10.7 10 Oeste 22 Oeste 0 975.9 1.1 73
2018-05-11 00:00:00 10.8 12 Oeste 15 Oeste 0 975.9 1.6 75
2018-05-10 23:00:00 12.2 6 Oeste 23 Sudoeste 0 975.4 2 71
2018-05-10 22:00:00 14.2 13 Sudoeste 32 Oeste 0 974.8 2.1 64
2018-05-10 21:00:00 17.1 16 Sudoeste 41 Sudoeste 0 974.3 1.9 54
2018-05-10 20:00:00 19.7 24 Oeste 44 Oeste 0 973.4 1.3 45
2018-05-10 19:00:00 21.6 27 Oeste 42 Oeste 0 972.7 0.2 40
2018-05-10 18:00:00 22.7 26 Oeste 41 Oeste 0 972.4 -0.6 37
2018-05-10 17:00:00 23.1 24 Oeste 41 Sudoeste 0 972.1 -1 35
2018-05-10 16:00:00 23.2 18 Oeste 36 Oeste 0 972.5 -0.9 35
2018-05-10 15:00:00 21.3 17 Oeste 36 Oeste 0 973 -0.4 36
2018-05-10 14:00:00 20.1 21 Oeste 33 Oeste 0 973.1 -0.1 39
2018-05-10 13:00:00 18.8 23 Oeste 41 Oeste 0 973.4 0.7 44
2018-05-10 12:00:00 16.5 27 Oeste 45 Oeste 0 973.4 1.6 51
2018-05-10 11:00:00 14.6 30 Oeste 46 Oeste 0 973.2 2.2 57
2018-05-10 10:00:00 13.9 29 Oeste 49 Oeste 0 972.7 2.6 61
2018-05-10 09:00:00 13 32 Oeste 50 Oeste 0 971.8 2.2 67
2018-05-10 08:00:00 12.6 26 Oeste 40 Oeste 0 971 2 69
2018-05-10 07:00:00 11.9 26 Oeste 40 Oeste 0 970.1 1.4 72
2018-05-10 06:00:00 12 19 Oeste 37 Oeste 0 969.6 1.1 71
2018-05-10 05:00:00 12.3 25 Oeste 35 Oeste 0 969 0.5 72
2018-05-10 04:00:00 12.4 23 Oeste 37 Oeste 0 968.7 0.2 71
2018-05-10 03:00:00 12.9 19 Sudoeste 39 Oeste 0 968.5 -0.1 69
2018-05-10 02:00:00 13.1 23 Oeste 42 Oeste 0 968.5 0.2 72
2018-05-10 01:00:00 13.7 28 Oeste 43 Sudoeste 0 968.5 1 73
2018-05-10 00:00:00 15.2 24 Sudoeste 41 Oeste 0 968.6 2 68
2018-05-09 23:00:00 16.5 23 Oeste 41 Sudoeste 0 968.3 2.3 62
2018-05-09 22:00:00 17.3 18 Sudoeste 37 Oeste 0 967.5 1.7 56
2018-05-09 21:00:00 19.3 20 Oeste 35 Oeste 0 966.6 0.7 53
2018-05-09 20:00:00 23 20 Oeste 34 Oeste 0 966 -0.1 44
2018-05-09 19:00:00 24.5 22 Oeste 36 Oeste 0 965.8 -0.9 39
2018-05-09 18:00:00 25 17 Oeste 36 Oeste 0 965.9 -1.3 33
2018-05-09 17:00:00 24.4 19 Oeste 35 Oeste 0 966.1 -1.7 36
2018-05-09 16:00:00 23.8 19 Oeste 35 Oeste 0 966.7 -1.6 42
2018-05-09 15:00:00 23.2 22 Oeste 35 Oeste 0 967.2 -1.7 44
2018-05-09 14:00:00 21.5 19 Oeste 33 Oeste 0 967.8 -1.2 46
2018-05-09 13:00:00 19.9 20 Oeste 33 Sudoeste 0 968.3 -0.8 53
2018-05-09 12:00:00 18.5 20 Oeste 35 Sudoeste 0 968.9 -0.2 57
2018-05-09 11:00:00 16.2 26 Oeste 42 Oeste 0 969 0 62
2018-05-09 10:00:00 13.9 25 Oeste 36 Oeste 0 969.1 0.5 70
2018-05-09 09:00:00 12 23 Oeste 36 Oeste 0 969.1 0.8 80
2018-05-09 08:00:00 11 24 Oeste 37 Oeste 0 969 0.5 84
2018-05-09 07:00:00 10.6 22 Oeste 33 Oeste 0 968.6 0.2 88
2018-05-09 06:00:00 11 19 Oeste 33 Oeste 0 968.3 -0.3 89
2018-05-09 05:00:00 11.3 19 Oeste 33 Sudoeste 0 968.5 -0.8 88
2018-05-09 04:00:00 11.5 20 Oeste 36 Sudoeste 0 968.4 -0.4 89
2018-05-09 03:00:00 12.4 21 Oeste 39 Sudoeste 0 968.6 -0.5 86
2018-05-09 02:00:00 12.9 13 Sudoeste 32 Oeste 0 969.3 0.6 84
2018-05-09 01:00:00 13.5 26 Oeste 41 Oeste 0 968.8 0.6 82
2018-05-09 00:00:00 14.1 26 Oeste 37 Oeste 0 969.1 1.2 80
2018-05-08 23:00:00 15.6 24 Oeste 41 Oeste 0 968.7 1.3 76
2018-05-08 22:00:00 17.2 24 Oeste 37 Sudoeste 0 968.2 1.5 72
2018-05-08 21:00:00 19.2 22 Oeste 37 Sudoeste 0 967.9 0.7 69
2018-05-08 20:00:00 19.3 21 Oeste 46 Oeste 0 967.4 -0.2 58
2018-05-08 19:00:00 24.1 9 Nordeste 13 Nordeste 0 966.7 -1.4 47
2018-05-08 18:00:00 24.9 4 Noroeste 13 Este 0 967.2 -1.7 44
2018-05-08 17:00:00 25.9 3 Sur 18 Nordeste 0 967.6 -1.7 41
2018-05-08 16:00:00 25.5 7 Norte 19 Noroeste 0 968.1 -1.6 41
2018-05-08 15:00:00 24.5 6 Nordeste 20 Norte 0 968.9 -1.3 46
2018-05-08 14:00:00 22.3 6 Noroeste 14 Oeste 0 969.3 -1 57
2018-05-08 13:00:00 21.8 6 Noroeste 13 Noroeste 0 969.7 -0.7 60
2018-05-08 12:00:00 19.9 5 Noroeste 15 Sur 0 970.2 -0.1 65
2018-05-08 11:00:00 19.2 8 Oeste 18 Oeste 0 970.3 0.3 67
2018-05-08 10:00:00 17.7 8 Sudoeste 14 Sudoeste 0 970.4 0.6 78
2018-05-08 09:00:00 16 2 Sudeste 7 Sudoeste 0 970.3 0.4 83
2018-05-08 08:00:00 15.3 3 Sur 6 Sudeste 0 970 -0.1 84
2018-05-08 07:00:00 14.6 3 Norte 9 Noroeste 0 969.8 -0.5 83
2018-05-08 06:00:00 15.2 6 Oeste 15 Oeste 0 969.9 -0.5 82
2018-05-08 05:00:00 15.5 13 Oeste 18 Oeste 0 970.1 -1.2 79
2018-05-08 04:00:00 16 9 Oeste 13 Oeste 0 970.3 -1 76
2018-05-08 03:00:00 16.4 8 Noroeste 16 Noroeste 0 970.4 -1.1 72
2018-05-08 02:00:00 15.4 8 Norte 17 Noroeste 0 971.3 -0.7 81
2018-05-08 01:00:00 15.5 10 Norte 17 Noroeste 0 971.3 -1 80
2018-05-08 00:00:00 16.3 5 Noroeste 13 Norte 0 971.5 -0.3 77
2018-05-07 23:00:00 17.3 10 Norte 23 Norte 0 972 1 77
2018-05-07 22:00:00 18.6 8 Norte 20 Norte 0 972.3 1.1 80
2018-05-07 21:00:00 19.6 7 Este 10 Este 0 971.8 0.4 83
2018-05-07 20:00:00 20.7 2 Nordeste 6 Noroeste 0 971 -0.5 81
2018-05-07 19:00:00 20.5 3 Noroeste 33 Nordeste 2.8 971.2 -1 83
2018-05-07 18:00:00 22.7 16 Este 26 Este 0 971.4 -1.6 60
2018-05-07 17:00:00 24.6 5 Noroeste 15 Oeste 0 971.5 -2.2 43
2018-05-07 16:00:00 24.2 9 Oeste 19 Sudoeste 0 972.2 -2.2 48
2018-05-07 15:00:00 22.7 8 Sudoeste 18 Sur 0 973 -1.6 54
2018-05-07 14:00:00 21.1 8 Sudoeste 17 Sudoeste 0 973.7 -0.9 58
2018-05-07 13:00:00 20.7 9 Sudoeste 18 Sudoeste 0 974.4 -0.2 59
2018-05-07 12:00:00 19.9 10 Sudoeste 17 Oeste 0 974.6 0.2 62
2018-05-07 11:00:00 18.6 5 Sudoeste 12 Sur 0 974.6 0.5 71
2018-05-07 10:00:00 16.8 0 Calma 4 Noroeste 0 974.6 0.9 74
2018-05-07 09:00:00 15.7 2 Noroeste 12 Noroeste 0 974.4 0.8 84
2018-05-07 08:00:00 14.9 8 Noroeste 12 Noroeste 0 974.1 0.3 86
2018-05-07 07:00:00 15 6 Noroeste 11 Noroeste 0 973.7 -0.6 85
2018-05-07 06:00:00 15.7 3 Nordeste 7 Noroeste 0 973.6 -0.8 82
2018-05-07 05:00:00 15.5 3 Noroeste 6 Nordeste 0 973.8 -0.7 81
2018-05-07 04:00:00 16.1 2 Nordeste 8 Norte 0 974.3 -0.5 78
2018-05-07 03:00:00 16.4 4 Norte 14 Nordeste 0 974.4 -0.4 73
2018-05-07 02:00:00 16.5 3 Nordeste 6 Este 0 974.5 -0.4 68
2018-05-07 01:00:00 16.9 5 Este 8 Este 0 974.8 0.3 67
2018-05-07 00:00:00 17.3 5 Nordeste 10 Este 0 974.8 0.8 68
2018-05-06 23:00:00 17.7 7 Nordeste 8 Este 0 974.9 1.6 68
2018-05-06 22:00:00 18.5 3 Nordeste 10 Sudeste 0 974.5 1.2 62
2018-05-06 21:00:00 19.5 8 Sudeste 15 Sudeste 0 974 0.7 61
2018-05-06 20:00:00 22.2 5 Sudeste 22 Sudeste 0 973.3 0 49
2018-05-06 19:00:00 22.3 13 Sudeste 20 Sudeste 0 973.3 -0.6 48
2018-05-06 18:00:00 23.4 10 Sudeste 22 Sudeste 0 973.3 -1.1 43
2018-05-06 17:00:00 24.1 6 Este 19 Este 0 973.3 -1.7 39
2018-05-06 16:00:00 24.9 8 Sudeste 19 Sudeste 0 973.9 -1.9 38
2018-05-06 15:00:00 24.2 8 Sur 17 Sur 0 974.4 -1.7 37
2018-05-06 14:00:00 23.5 6 Sur 19 Sudeste 0 975 -1.1 41
2018-05-06 13:00:00 21.7 6 Noroeste 14 Sudoeste 0 975.8 0 51
2018-05-06 12:00:00 20.1 7 Oeste 23 Oeste 0 976.1 0.2 60
2018-05-06 11:00:00 17.7 13 Oeste 24 Oeste 0 976.1 0.1 68
2018-05-06 10:00:00 15.3 15 Oeste 26 Oeste 0 975.8 0.2 79
2018-05-06 09:00:00 13.5 17 Oeste 23 Oeste 0 975.9 0.7 85
2018-05-06 08:00:00 11.6 9 Oeste 14 Oeste 0 976 0.8 89
2018-05-06 07:00:00 10.8 7 Oeste 11 Oeste 0 975.6 0.4 86
2018-05-06 06:00:00 12.3 3 Sudoeste 14 Noroeste 0 975.2 -0.1 81
2018-05-06 05:00:00 13.4 7 Noroeste 17 Noroeste 0 975.2 -0.3 78
2018-05-06 04:00:00 13.9 10 Noroeste 15 Noroeste 0 975.2 -0.6 76
2018-05-06 03:00:00 14.4 6 Noroeste 11 Noroeste 0 975.3 -0.7 74
2018-05-06 02:00:00 15.3 5 Noroeste 10 Norte 0 975.5 -0.3 72
2018-05-06 01:00:00 15.5 6 Noroeste 11 Noroeste 0 975.8 0.5 72
2018-05-06 00:00:00 16.3 4 Norte 11 Norte 0 976 1.4 69
2018-05-05 23:00:00 16.5 5 Norte 13 Norte 0 975.8 1.7 68
2018-05-05 22:00:00 16.5 5 Norte 15 Este 0 975.3 1.6 72
2018-05-05 21:00:00 17.4 8 Nordeste 19 Nordeste 0 974.6 1.2 68
2018-05-05 20:00:00 18.1 13 Nordeste 22 Nordeste 0 974.1 0.8 65
2018-05-05 19:00:00 19.2 13 Nordeste 23 Nordeste 0 973.7 0.2 59
2018-05-05 18:00:00 21 9 Este 19 Sudeste 0 973.4 -0.3 46
2018-05-05 17:00:00 22.4 8 Este 17 Este 0 973.3 -0.7 42
2018-05-05 16:00:00 21.5 4 Oeste 19 Sudoeste 0 973.5 -0.7 44
2018-05-05 15:00:00 21.6 7 Sudoeste 21 Oeste 0 973.7 -0.8 43
2018-05-05 14:00:00 19.3 10 Sudoeste 27 Oeste 0 974 -0.7 49
2018-05-05 13:00:00 17.6 17 Oeste 30 Oeste 0 974.2 -0.3 54
2018-05-05 12:00:00 15.8 17 Oeste 28 Oeste 0 974.5 0.4 59
2018-05-05 11:00:00 13.6 13 Oeste 22 Oeste 0 974.7 0.8 63
2018-05-05 10:00:00 12.1 13 Oeste 25 Sudoeste 0 974.5 1.2 68
2018-05-05 09:00:00 10.4 14 Oeste 24 Oeste 0 974.1 0.9 75
2018-05-05 08:00:00 7.8 10 Oeste 23 Oeste 0 973.9 0.5 83
2018-05-05 07:00:00 6.9 11 Oeste 24 Sudoeste 0 973.3 0.5 85
2018-05-05 06:00:00 7.3 17 Oeste 25 Oeste 0 973.2 -0.2 84
2018-05-05 05:00:00 7.6 13 Oeste 28 Sudoeste 0 973.4 -0.2 81
2018-05-05 04:00:00 8.2 21 Sudoeste 33 Oeste 0 972.8 -0.5 79
2018-05-05 03:00:00 8.8 16 Oeste 24 Oeste 0 973.4 0.3 76
2018-05-05 02:00:00 9.7 13 Oeste 35 Oeste 0 973.6 0.9 72
2018-05-05 01:00:00 10.6 27 Oeste 43 Sudoeste 0 973.3 1.2 67
2018-05-05 00:00:00 11.5 28 Oeste 43 Oeste 0 973.1 1.8 64
2018-05-04 23:00:00 12.2 30 Oeste 46 Oeste 0 972.7 2.4 62
2018-05-04 22:00:00 13.5 29 Oeste 46 Oeste 0 972.1 2 58
2018-05-04 21:00:00 15.3 29 Oeste 49 Oeste 0 971.3 1.7 54
2018-05-04 20:00:00 17.8 34 Oeste 50 Oeste 0 970.3 0.8 46
2018-05-04 19:00:00 19.4 28 Oeste 48 Oeste 0 970.1 0.7 44
2018-05-04 18:00:00 19.3 30 Oeste 47 Oeste 0 969.6 0 42
2018-05-04 17:00:00 20.2 31 Oeste 53 Oeste 0 969.5 -0.4 39
2018-05-04 16:00:00 21.2 29 Oeste 50 Oeste 0 969.4 -0.8 37
2018-05-04 15:00:00 21.2 30 Oeste 48 Oeste 0 969.6 -0.7 35
2018-05-04 14:00:00 20.5 28 Oeste 46 Oeste 0 969.9 -1 36
2018-05-04 13:00:00 19.3 28 Oeste 45 Sudoeste 0 970.2 -0.7 39
2018-05-04 12:00:00 16.7 30 Oeste 46 Oeste 0 970.3 -0.6 46
2018-05-04 11:00:00 14.4 27 Oeste 45 Sudoeste 0 970.9 0.4 55
2018-05-04 10:00:00 12.3 28 Oeste 42 Oeste 0 970.9 0.6 63
2018-05-04 09:00:00 9.1 21 Oeste 38 Oeste 0 970.9 0.5 75
2018-05-04 08:00:00 7.1 25 Oeste 38 Oeste 0 970.5 0.1 77
2018-05-04 07:00:00 6.8 26 Oeste 41 Oeste 0 970.3 -0.3 79
2018-05-04 06:00:00 7.1 25 Oeste 44 Oeste 0 970.4 -0.4 78
2018-05-04 05:00:00 7.2 31 Oeste 44 Oeste 0 970.4 -0.6 75
2018-05-04 04:00:00 7.4 24 Sudoeste 46 Oeste 0 970.6 -0.5 73
2018-05-04 03:00:00 7.6 30 Oeste 46 Oeste 0 970.8 0 72
2018-05-04 02:00:00 7.8 28 Oeste 45 Oeste 0 971 0.3 69
2018-05-04 01:00:00 8.5 29 Oeste 46 Oeste 0 971.1 0.9 65
2018-05-04 00:00:00 9.5 32 Oeste 49 Oeste 0 970.8 1.4 62
2018-05-03 23:00:00 10.1 34 Oeste 51 Oeste 0 970.7 1.8 62
2018-05-03 22:00:00 11 30 Oeste 52 Oeste 0 970.2 1.6 59
2018-05-03 21:00:00 13 31 Oeste 48 Oeste 0 969.4 1 52
2018-05-03 20:00:00 15 31 Oeste 53 Oeste 0 968.9 0.9 48
2018-05-03 19:00:00 17 34 Oeste 54 Oeste 0 968.6 0.1 43
2018-05-03 18:00:00 17.7 39 Oeste 61 Oeste 0 968.4 -0.6 42
2018-05-03 17:00:00 17.5 43 Oeste 61 Oeste 0 968 -1.2 43
2018-05-03 16:00:00 18.5 42 Oeste 63 Oeste 0 968.5 -1.1 40
2018-05-03 15:00:00 18.7 39 Oeste 59 Oeste 0 969 -1 42
2018-05-03 14:00:00 17.9 37 Oeste 54 Oeste 0 969.2 -0.6 46
2018-05-03 13:00:00 17.4 33 Oeste 49 Oeste 0 969.6 0.3 45
2018-05-03 12:00:00 15.1 30 Oeste 51 Oeste 0 970 1.4 48
2018-05-03 11:00:00 13.6 35 Oeste 56 Oeste 0 969.8 1 54
2018-05-03 10:00:00 13.3 39 Oeste 63 Oeste 0 969.3 0.7 56
2018-05-03 09:00:00 11.9 46 Oeste 67 Oeste 0 968.6 0.2 63
2018-05-03 08:00:00 10.8 34 Oeste 50 Oeste 0 968.8 0 78
2018-05-03 07:00:00 10.3 28 Oeste 52 Oeste 0 968.6 -0.5 85
2018-05-03 06:00:00 10.7 33 Oeste 49 Oeste 0 968.4 -0.9 86
2018-05-03 05:00:00 10.6 29 Oeste 48 Oeste 0 968.8 -0.7 87
2018-05-03 04:00:00 10.8 31 Oeste 49 Oeste 0 969.1 -0.2 84
2018-05-03 03:00:00 10.8 28 Oeste 41 Oeste 0 969.3 -0.2 81
2018-05-03 02:00:00 11.5 32 Oeste 49 Oeste 0 969.5 0.1 75
2018-05-03 01:00:00 11.7 30 Oeste 46 Oeste 0 969.3 -0.1 71
2018-05-03 00:00:00 12.4 26 Oeste 49 Oeste 0 969.5 0.7 66
2018-05-02 23:00:00 13.4 33 Oeste 53 Oeste 0 969.4 0.9 60
2018-05-02 22:00:00 14.5 35 Oeste 51 Oeste 0 969.4 1.1 55
2018-05-02 21:00:00 15.7 40 Oeste 55 Oeste 0 968.8 0.6 51
2018-05-02 20:00:00 17.2 37 Oeste 54 Oeste 0 968.5 -0.1 45
2018-05-02 19:00:00 18 33 Oeste 47 Oeste 0 968.3 -0.9 40
2018-05-02 18:00:00 20.1 27 Oeste 47 Oeste 0 968.2 -1.2 32
2018-05-02 17:00:00 19.2 33 Oeste 48 Oeste 0 968.6 -1.2 32
2018-05-02 16:00:00 19.1 30 Oeste 46 Oeste 0 969.2 -1.1 31
2018-05-02 15:00:00 18.9 28 Oeste 44 Oeste 0 969.4 -1.3 30
2018-05-02 14:00:00 18.4 26 Oeste 43 Oeste 0 969.8 -1 31
2018-05-02 13:00:00 17.5 24 Oeste 40 Oeste 0 970.3 -0.5 34
2018-05-02 12:00:00 15.9 18 Sudoeste 35 Sudoeste 0 970.7 -0.3 40
2018-05-02 11:00:00 13.5 18 Oeste 31 Oeste 0 970.8 0.2 48
2018-05-02 10:00:00 11.4 21 Oeste 33 Oeste 0 970.8 0.5 57
2018-05-02 09:00:00 8 4 Sudoeste 14 Oeste 0 971 0.7 64
2018-05-02 08:00:00 5.7 9 Oeste 15 Oeste 0 970.6 -0.1 73
2018-05-02 07:00:00 3.6 6 Oeste 15 Oeste 0 970.3 -0.2 76
2018-05-02 06:00:00 4.3 10 Oeste 16 Oeste 0 970.3 -0.5 70
2018-05-02 05:00:00 3.5 12 Oeste 22 Oeste 0 970.7 -0.3 75
2018-05-02 04:00:00 4.2 18 Oeste 24 Oeste 0 970.5 -0.5 74
2018-05-02 03:00:00 5.6 19 Oeste 26 Oeste 0 970.8 -0.3 68
2018-05-02 02:00:00 5.7 18 Oeste 26 Sudoeste 0 971 -0.1 72
2018-05-02 01:00:00 6.8 17 Oeste 25 Oeste 0 971 0.2 68
2018-05-02 00:00:00 7.3 10 Oeste 16 Oeste 0 971.1 0.7 68
2018-05-01 23:00:00 8 8 Oeste 12 Oeste 0 971.1 0.9 69
2018-05-01 22:00:00 10.2 6 Noroeste 19 Oeste 0 970.8 1.1 58
2018-05-01 21:00:00 13.4 3 Norte 27 Oeste 0 970.4 0.8 48
2018-05-01 20:00:00 14.9 22 Oeste 40 Oeste 0 970.2 0.7 40
2018-05-01 19:00:00 16.3 30 Oeste 45 Oeste 0 969.7 -0.2 34
2018-05-01 18:00:00 17.3 27 Oeste 44 Oeste 0 969.6 -0.7 33
2018-05-01 17:00:00 17.5 26 Oeste 51 Oeste 0 969.5 -1.2 32
2018-05-01 16:00:00 17.4 22 Oeste 46 Oeste 0 969.9 -1.4 38
2018-05-01 15:00:00 15.8 16 Oeste 30 Oeste 0 970.3 -1.4 42
2018-05-01 14:00:00 14.5 15 Oeste 28 Oeste 0 970.7 -0.9 46
2018-05-01 13:00:00 13.4 9 Oeste 24 Oeste 0 971.3 -0.3 50
2018-05-01 12:00:00 13.1 10 Oeste 27 Oeste 0 971.7 0.4 56
2018-05-01 11:00:00 10.9 13 Oeste 29 Oeste 0 971.6 0.3 64
2018-05-01 10:00:00 8.9 18 Oeste 29 Oeste 0 971.6 0.7 73
2018-05-01 09:00:00 6 18 Oeste 27 Oeste 0 971.3 0.4 89
2018-05-01 08:00:00 4 15 Oeste 24 Oeste 0 971.3 0.3 97
2018-05-01 07:00:00 3.2 18 Oeste 28 Oeste 0 970.9 0.1 96
2018-05-01 06:00:00 3.8 16 Oeste 23 Oeste 0 970.9 -0.1 94
2018-05-01 05:00:00 4.3 13 Oeste 27 Oeste 0 971 -0.5 93
2018-05-01 04:00:00 4.8 19 Oeste 27 Sudoeste 0 970.8 -0.6 93
2018-05-01 03:00:00 4.9 18 Oeste 28 Oeste 0 971 -0.5 90
2018-05-01 02:00:00 5.5 18 Oeste 28 Sudoeste 0 971.5 0.2 88
2018-05-01 01:00:00 6.6 18 Oeste 28 Oeste 0 971.4 0.8 82
2018-05-01 00:00:00 7.2 18 Oeste 39 Oeste 0 971.5 1.5 80
2018-04-30 23:00:00 9 24 Oeste 35 Oeste 0 971.3 2 69
2018-04-30 22:00:00 9.9 12 Oeste 30 Oeste 0 970.6 1.7 66
2018-04-30 21:00:00 12 19 Oeste 33 Oeste 0 970 1 49
2018-04-30 20:00:00 15 19 Oeste 37 Oeste 0 969.3 0 39
2018-04-30 19:00:00 16.6 8 Sudoeste 32 Oeste 0 968.9 -1.1 31
2018-04-30 18:00:00 16.7 14 Oeste 31 Oeste 0 969 -1.4 33
2018-04-30 17:00:00 15.1 12 Oeste 29 Oeste 0 969.3 -1.7 34
2018-04-30 16:00:00 15.9 11 Oeste 31 Oeste 0 970 -1.6 33
2018-04-30 15:00:00 14.6 15 Oeste 32 Oeste 0 970.4 -1.2 39
2018-04-30 14:00:00 14 18 Oeste 32 Oeste 0 971 -0.5 42
2018-04-30 13:00:00 12.9 17 Oeste 32 Oeste 0 971.6 0.3 45
2018-04-30 12:00:00 12.2 17 Oeste 30 Oeste 0 971.6 0.8 53
2018-04-30 11:00:00 11 19 Oeste 30 Oeste 0 971.5 0.7 60
2018-04-30 10:00:00 10.6 15 Oeste 30 Sudoeste 0 971.3 1 61
2018-04-30 09:00:00 7.7 15 Sudoeste 25 Oeste 0 970.8 0.9 70
2018-04-30 08:00:00 6.1 11 Oeste 23 Sudoeste 0 970.8 0.8 81
2018-04-30 07:00:00 6.1 19 Oeste 30 Oeste 0 970.3 0.4 78
2018-04-30 06:00:00 6.5 19 Oeste 28 Oeste 0 969.9 -0.1 80
2018-04-30 05:00:00 6.5 12 Oeste 22 Sudoeste 0 970 -0.3 81
2018-04-30 04:00:00 6.2 10 Oeste 17 Sudoeste 0 969.9 -0.3 84
2018-04-30 03:00:00 7 9 Oeste 13 Oeste 0 970 0.1 82
2018-04-30 02:00:00 7.6 6 Oeste 17 Sudoeste 0 970.3 0.9 82
2018-04-30 01:00:00 8.5 7 Oeste 12 Oeste 0 970.2 2 81
2018-04-30 00:00:00 9.7 4 Oeste 13 Sur 0 969.9 2.9 78
2018-04-29 23:00:00 10.6 6 Sudoeste 11 Sudoeste 0 969.4 3.1 72
2018-04-29 22:00:00 10.2 5 Sudoeste 14 Sudoeste 0 968.2 2.7 80
2018-04-29 21:00:00 11.4 9 Sudoeste 30 Oeste 0 967 2 72
2018-04-29 20:00:00 13.8 14 Oeste 27 Noroeste 0 966.3 1.9 59
2018-04-29 19:00:00 15.3 19 Oeste 43 Noroeste 0 965.5 1.7 50
2018-04-29 18:00:00 14.8 28 Oeste 50 Oeste 0 965 2 53
2018-04-29 17:00:00 14.1 31 Oeste 49 Oeste 0 964.4 1.7 62
2018-04-29 16:00:00 13.5 25 Oeste 46 Oeste 0 963.8 0.9 62
2018-04-29 15:00:00 15.9 28 Oeste 49 Sudoeste 0 963 -0.6 56
2018-04-29 14:00:00 14.6 25 Oeste 37 Oeste 0 962.7 0 63
2018-04-29 13:00:00 13 10 Sudoeste 38 Oeste 0.4 962.9 -0.1 66
2018-04-29 12:00:00 10 23 Sudoeste 42 Oeste 0.2 963.6 1 83
2018-04-29 11:00:00 13.2 6 Oeste 15 Oeste 0 962.7 0.2 63
2018-04-29 10:00:00 12.1 3 Sudeste 6 Sudeste 0 963 0.6 92
2018-04-29 09:00:00 11.3 3 Este 12 Este 0 962.6 0.5 94
2018-04-29 08:00:00 10.9 3 Sudeste 9 Nordeste 0.2 962.5 -0.1 95
2018-04-29 07:00:00 11 4 Sur 11 Oeste 0.2 962.4 -0.2 95
2018-04-29 06:00:00 11 5 Sudoeste 15 Oeste 0.2 962.1 -0.8 92
2018-04-29 05:00:00 11.7 8 Oeste 26 Oeste 2.2 962.6 -1.1 94
2018-04-29 04:00:00 12.1 22 Oeste 31 Oeste 3 962.6 -1.2 90
2018-04-29 03:00:00 13.9 5 Sudeste 21 Este 1.2 962.9 -1.1 97
2018-04-29 02:00:00 14.2 5 Este 14 Nordeste 0.4 963.7 -0.4 93
2018-04-29 01:00:00 14.7 4 Nordeste 15 Nordeste 0 963.8 0.6 87
2018-04-29 00:00:00 14.7 7 Nordeste 21 Este 0 964 0.7 85
2018-04-28 23:00:00 14.9 13 Este 35 Este 0 964.1 1 85
2018-04-28 22:00:00 15.4 24 Este 33 Este 0 963.2 -0.3 82
2018-04-28 21:00:00 16.7 20 Este 41 Este 0 963.3 -0.2 77
2018-04-28 20:00:00 19.2 25 Este 39 Este 0 963.1 -1.2 66
2018-04-28 19:00:00 20.2 23 Este 40 Sudeste 0 963.5 -1.6 62
2018-04-28 18:00:00 21.5 26 Este 44 Este 0 963.5 -2.7 57
2018-04-28 17:00:00 22.5 29 Este 47 Este 0 964.3 -2.8 53
2018-04-28 16:00:00 22.3 27 Este 40 Este 0 965.1 -2.9 52
2018-04-28 15:00:00 21.2 20 Este 36 Este 0 966.2 -2.6 57
2018-04-28 14:00:00 19.9 20 Este 30 Este 0 967.1 -2.1 61
2018-04-28 13:00:00 17.7 15 Nordeste 27 Este 0 968 -1.4 66
2018-04-28 12:00:00 15.6 10 Este 19 Este 0 968.8 -0.6 69
2018-04-28 11:00:00 13.6 3 Este 11 Oeste 0 969.2 -0.1 73
2018-04-28 10:00:00 12 5 Sudoeste 12 Oeste 0 969.4 0.5 86
2018-04-28 09:00:00 10.9 7 Oeste 20 Oeste 0 969.4 0.6 88
2018-04-28 08:00:00 9.5 10 Oeste 19 Oeste 0 969.3 0.2 88
2018-04-28 07:00:00 8.3 13 Oeste 19 Oeste 0 968.9 -0.1 91
2018-04-28 06:00:00 8.6 14 Oeste 20 Sudoeste 0 968.8 -0.3 92
2018-04-28 05:00:00 9.5 12 Oeste 23 Oeste 0 969.1 -0.6 91
2018-04-28 04:00:00 10 13 Sudoeste 24 Sudoeste 0 969 -0.7 90
2018-04-28 03:00:00 10.9 11 Oeste 21 Sudoeste 0 969.1 -0.8 89
2018-04-28 02:00:00 11.5 13 Oeste 25 Oeste 0 969.7 0.1 88
2018-04-28 01:00:00 12.1 16 Oeste 26 Oeste 0 969.7 0.2 88
2018-04-28 00:00:00 13.9 8 Oeste 21 Oeste 0 969.9 1.4 84